sensor_id;sensor_type;location;lat;lon;timestamp;P1;durP1;ratioP1;P2;durP2;ratioP2
62848;SDS011;48941;49.516;8.286;2024-01-30T00:02:04;33.15;;;19.95;;
62848;SDS011;48941;49.516;8.286;2024-01-30T00:04:33;35.15;;;19.50;;
62848;SDS011;48941;49.516;8.286;2024-01-30T00:07:01;33.08;;;19.52;;
62848;SDS011;48941;49.516;8.286;2024-01-30T00:09:29;34.58;;;20.10;;
62848;SDS011;48941;49.516;8.286;2024-01-30T00:11:57;31.20;;;19.45;;
62848;SDS011;48941;49.516;8.286;2024-01-30T00:14:25;33.13;;;19.90;;
62848;SDS011;48941;49.516;8.286;2024-01-30T00:16:53;33.83;;;20.63;;
62848;SDS011;48941;49.516;8.286;2024-01-30T00:26:17;32.03;;;19.30;;
62848;SDS011;48941;49.516;8.286;2024-01-30T00:28:45;37.08;;;21.30;;
62848;SDS011;48941;49.516;8.286;2024-01-30T00:31:13;35.65;;;21.02;;
62848;SDS011;48941;49.516;8.286;2024-01-30T00:33:41;35.13;;;20.40;;
62848;SDS011;48941;49.516;8.286;2024-01-30T00:36:09;32.20;;;19.95;;
62848;SDS011;48941;49.516;8.286;2024-01-30T00:38:37;35.40;;;20.20;;
62848;SDS011;48941;49.516;8.286;2024-01-30T00:41:05;32.38;;;19.73;;
62848;SDS011;48941;49.516;8.286;2024-01-30T00:43:34;33.13;;;19.02;;
62848;SDS011;48941;49.516;8.286;2024-01-30T00:46:01;33.05;;;20.00;;
62848;SDS011;48941;49.516;8.286;2024-01-30T00:48:29;34.70;;;20.13;;
62848;SDS011;48941;49.516;8.286;2024-01-30T00:50:57;32.10;;;19.55;;
62848;SDS011;48941;49.516;8.286;2024-01-30T00:53:26;35.40;;;19.67;;
62848;SDS011;48941;49.516;8.286;2024-01-30T00:55:53;34.70;;;18.83;;
62848;SDS011;48941;49.516;8.286;2024-01-30T00:58:21;34.53;;;20.05;;
62848;SDS011;48941;49.516;8.286;2024-01-30T01:00:50;32.47;;;18.85;;
62848;SDS011;48941;49.516;8.286;2024-01-30T01:03:18;30.05;;;18.23;;
62848;SDS011;48941;49.516;8.286;2024-01-30T01:05:46;31.13;;;18.70;;
62848;SDS011;48941;49.516;8.286;2024-01-30T01:08:13;33.28;;;19.15;;
62848;SDS011;48941;49.516;8.286;2024-01-30T01:10:41;33.00;;;19.05;;
62848;SDS011;48941;49.516;8.286;2024-01-30T01:13:09;31.58;;;19.02;;
62848;SDS011;48941;49.516;8.286;2024-01-30T01:15:37;40.08;;;20.17;;
62848;SDS011;48941;49.516;8.286;2024-01-30T01:18:06;33.45;;;19.35;;
62848;SDS011;48941;49.516;8.286;2024-01-30T01:20:34;39.63;;;20.50;;
62848;SDS011;48941;49.516;8.286;2024-01-30T01:23:01;39.65;;;21.48;;
62848;SDS011;48941;49.516;8.286;2024-01-30T01:25:29;41.38;;;21.10;;
62848;SDS011;48941;49.516;8.286;2024-01-30T01:27:57;36.90;;;20.73;;
62848;SDS011;48941;49.516;8.286;2024-01-30T01:30:27;35.50;;;20.25;;
62848;SDS011;48941;49.516;8.286;2024-01-30T01:32:55;32.67;;;19.42;;
62848;SDS011;48941;49.516;8.286;2024-01-30T01:35:27;36.22;;;20.23;;
62848;SDS011;48941;49.516;8.286;2024-01-30T01:37:55;33.25;;;19.48;;
62848;SDS011;48941;49.516;8.286;2024-01-30T01:40:24;36.33;;;20.17;;
62848;SDS011;48941;49.516;8.286;2024-01-30T01:42:54;35.28;;;20.85;;
62848;SDS011;48941;49.516;8.286;2024-01-30T01:45:23;37.30;;;21.17;;
62848;SDS011;48941;49.516;8.286;2024-01-30T01:47:51;31.42;;;19.23;;
62848;SDS011;48941;49.516;8.286;2024-01-30T01:50:22;33.20;;;19.33;;
62848;SDS011;48941;49.516;8.286;2024-01-30T01:52:52;33.13;;;19.80;;
62848;SDS011;48941;49.516;8.286;2024-01-30T01:55:21;29.25;;;18.75;;
62848;SDS011;48941;49.516;8.286;2024-01-30T01:57:50;31.45;;;17.98;;
62848;SDS011;48941;49.516;8.286;2024-01-30T02:00:20;33.17;;;19.02;;
62848;SDS011;48941;49.516;8.286;2024-01-30T02:02:48;27.77;;;16.35;;
62848;SDS011;48941;49.516;8.286;2024-01-30T02:05:17;25.77;;;15.50;;
62848;SDS011;48941;49.516;8.286;2024-01-30T02:07:46;29.60;;;16.42;;
62848;SDS011;48941;49.516;8.286;2024-01-30T02:10:15;27.00;;;16.60;;
62848;SDS011;48941;49.516;8.286;2024-01-30T02:12:43;27.95;;;16.42;;
62848;SDS011;48941;49.516;8.286;2024-01-30T02:15:13;26.85;;;16.58;;
62848;SDS011;48941;49.516;8.286;2024-01-30T02:17:41;27.33;;;16.48;;
62848;SDS011;48941;49.516;8.286;2024-01-30T02:20:09;26.38;;;15.43;;
62848;SDS011;48941;49.516;8.286;2024-01-30T02:22:39;25.13;;;15.57;;
62848;SDS011;48941;49.516;8.286;2024-01-30T02:27:38;23.88;;;13.95;;
62848;SDS011;48941;49.516;8.286;2024-01-30T02:30:06;27.00;;;15.75;;
62848;SDS011;48941;49.516;8.286;2024-01-30T02:32:34;26.33;;;15.10;;
62848;SDS011;48941;49.516;8.286;2024-01-30T02:35:02;26.52;;;16.20;;
62848;SDS011;48941;49.516;8.286;2024-01-30T02:37:30;27.63;;;16.90;;
62848;SDS011;48941;49.516;8.286;2024-01-30T02:39:59;27.25;;;16.38;;
62848;SDS011;48941;49.516;8.286;2024-01-30T02:42:27;25.88;;;15.90;;
62848;SDS011;48941;49.516;8.286;2024-01-30T02:44:55;26.85;;;16.17;;
62848;SDS011;48941;49.516;8.286;2024-01-30T02:47:23;23.77;;;14.93;;
62848;SDS011;48941;49.516;8.286;2024-01-30T02:49:50;26.40;;;15.98;;
62848;SDS011;48941;49.516;8.286;2024-01-30T02:52:21;27.40;;;15.18;;
62848;SDS011;48941;49.516;8.286;2024-01-30T02:54:49;26.17;;;15.77;;
62848;SDS011;48941;49.516;8.286;2024-01-30T02:57:18;25.38;;;15.63;;
62848;SDS011;48941;49.516;8.286;2024-01-30T02:59:46;30.33;;;17.05;;
62848;SDS011;48941;49.516;8.286;2024-01-30T03:02:14;25.33;;;15.90;;
62848;SDS011;48941;49.516;8.286;2024-01-30T03:04:41;28.08;;;17.95;;
62848;SDS011;48941;49.516;8.286;2024-01-30T03:07:09;24.88;;;15.73;;
62848;SDS011;48941;49.516;8.286;2024-01-30T03:09:37;25.33;;;16.17;;
62848;SDS011;48941;49.516;8.286;2024-01-30T03:12:05;28.30;;;16.20;;
62848;SDS011;48941;49.516;8.286;2024-01-30T03:14:38;22.92;;;14.85;;
62848;SDS011;48941;49.516;8.286;2024-01-30T03:17:05;28.17;;;16.33;;
62848;SDS011;48941;49.516;8.286;2024-01-30T03:19:33;27.27;;;16.33;;
62848;SDS011;48941;49.516;8.286;2024-01-30T03:22:01;25.23;;;15.85;;
62848;SDS011;48941;49.516;8.286;2024-01-30T03:24:29;24.60;;;15.80;;
62848;SDS011;48941;49.516;8.286;2024-01-30T03:26:56;26.33;;;15.68;;
62848;SDS011;48941;49.516;8.286;2024-01-30T03:29:24;31.13;;;16.98;;
62848;SDS011;48941;49.516;8.286;2024-01-30T03:31:53;30.13;;;17.95;;
62848;SDS011;48941;49.516;8.286;2024-01-30T03:34:21;29.25;;;17.13;;
62848;SDS011;48941;49.516;8.286;2024-01-30T03:36:49;31.83;;;18.63;;
62848;SDS011;48941;49.516;8.286;2024-01-30T03:39:17;30.25;;;16.95;;
62848;SDS011;48941;49.516;8.286;2024-01-30T03:41:44;25.70;;;16.23;;
62848;SDS011;48941;49.516;8.286;2024-01-30T03:44:12;26.17;;;16.75;;
62848;SDS011;48941;49.516;8.286;2024-01-30T03:46:40;28.67;;;17.05;;
62848;SDS011;48941;49.516;8.286;2024-01-30T03:49:09;30.80;;;17.25;;
62848;SDS011;48941;49.516;8.286;2024-01-30T03:51:37;29.20;;;16.67;;
62848;SDS011;48941;49.516;8.286;2024-01-30T03:54:05;31.30;;;16.70;;
62848;SDS011;48941;49.516;8.286;2024-01-30T03:56:33;30.60;;;16.52;;
62848;SDS011;48941;49.516;8.286;2024-01-30T03:59:01;31.05;;;16.48;;
62848;SDS011;48941;49.516;8.286;2024-01-30T04:01:29;30.05;;;17.33;;
62848;SDS011;48941;49.516;8.286;2024-01-30T04:03:57;33.17;;;18.17;;
62848;SDS011;48941;49.516;8.286;2024-01-30T04:06:26;29.30;;;16.67;;
62848;SDS011;48941;49.516;8.286;2024-01-30T04:08:54;29.70;;;16.02;;
62848;SDS011;48941;49.516;8.286;2024-01-30T04:11:21;27.92;;;16.73;;
62848;SDS011;48941;49.516;8.286;2024-01-30T04:13:49;28.92;;;16.95;;
62848;SDS011;48941;49.516;8.286;2024-01-30T04:16:20;30.27;;;17.25;;
62848;SDS011;48941;49.516;8.286;2024-01-30T04:18:48;29.13;;;16.45;;
62848;SDS011;48941;49.516;8.286;2024-01-30T04:21:16;28.30;;;16.90;;
62848;SDS011;48941;49.516;8.286;2024-01-30T04:23:45;29.80;;;16.27;;
62848;SDS011;48941;49.516;8.286;2024-01-30T04:26:14;29.40;;;17.65;;
62848;SDS011;48941;49.516;8.286;2024-01-30T04:28:42;27.88;;;16.63;;
62848;SDS011;48941;49.516;8.286;2024-01-30T04:31:11;27.35;;;16.05;;
62848;SDS011;48941;49.516;8.286;2024-01-30T04:33:39;27.52;;;15.73;;
62848;SDS011;48941;49.516;8.286;2024-01-30T04:36:08;28.67;;;16.20;;
62848;SDS011;48941;49.516;8.286;2024-01-30T04:38:37;29.55;;;16.85;;
62848;SDS011;48941;49.516;8.286;2024-01-30T04:41:06;29.25;;;16.13;;
62848;SDS011;48941;49.516;8.286;2024-01-30T04:43:34;31.02;;;17.00;;
62848;SDS011;48941;49.516;8.286;2024-01-30T04:46:02;29.35;;;17.02;;
62848;SDS011;48941;49.516;8.286;2024-01-30T04:48:31;31.60;;;17.30;;
62848;SDS011;48941;49.516;8.286;2024-01-30T04:50:59;30.40;;;17.13;;
62848;SDS011;48941;49.516;8.286;2024-01-30T04:53:29;32.90;;;17.65;;
62848;SDS011;48941;49.516;8.286;2024-01-30T04:55:57;32.15;;;17.33;;
62848;SDS011;48941;49.516;8.286;2024-01-30T04:58:28;34.42;;;17.52;;
62848;SDS011;48941;49.516;8.286;2024-01-30T05:00:56;30.67;;;17.42;;
62848;SDS011;48941;49.516;8.286;2024-01-30T05:03:24;32.63;;;17.35;;
62848;SDS011;48941;49.516;8.286;2024-01-30T05:05:52;31.52;;;17.25;;
62848;SDS011;48941;49.516;8.286;2024-01-30T05:08:20;33.72;;;16.48;;
62848;SDS011;48941;49.516;8.286;2024-01-30T05:10:48;28.48;;;16.33;;
62848;SDS011;48941;49.516;8.286;2024-01-30T05:13:15;32.60;;;17.05;;
62848;SDS011;48941;49.516;8.286;2024-01-30T05:15:44;31.42;;;17.20;;
62848;SDS011;48941;49.516;8.286;2024-01-30T05:18:12;35.95;;;18.33;;
62848;SDS011;48941;49.516;8.286;2024-01-30T05:20:40;32.45;;;17.02;;
62848;SDS011;48941;49.516;8.286;2024-01-30T05:23:08;34.50;;;17.65;;
62848;SDS011;48941;49.516;8.286;2024-01-30T05:25:35;38.78;;;18.00;;
62848;SDS011;48941;49.516;8.286;2024-01-30T05:28:05;34.40;;;17.00;;
62848;SDS011;48941;49.516;8.286;2024-01-30T05:30:33;31.58;;;17.58;;
62848;SDS011;48941;49.516;8.286;2024-01-30T05:33:02;35.80;;;19.13;;
62848;SDS011;48941;49.516;8.286;2024-01-30T05:35:30;37.70;;;18.88;;
62848;SDS011;48941;49.516;8.286;2024-01-30T05:37:58;36.42;;;18.45;;
62848;SDS011;48941;49.516;8.286;2024-01-30T05:40:26;34.78;;;18.88;;
62848;SDS011;48941;49.516;8.286;2024-01-30T05:42:54;30.27;;;17.35;;
62848;SDS011;48941;49.516;8.286;2024-01-30T05:45:21;32.97;;;18.42;;
62848;SDS011;48941;49.516;8.286;2024-01-30T05:47:49;34.33;;;19.25;;
62848;SDS011;48941;49.516;8.286;2024-01-30T05:50:19;32.33;;;18.50;;
62848;SDS011;48941;49.516;8.286;2024-01-30T05:52:49;30.45;;;17.17;;
62848;SDS011;48941;49.516;8.286;2024-01-30T05:55:17;31.95;;;16.58;;
62848;SDS011;48941;49.516;8.286;2024-01-30T05:57:45;27.17;;;16.67;;
62848;SDS011;48941;49.516;8.286;2024-01-30T06:00:13;27.70;;;16.23;;
62848;SDS011;48941;49.516;8.286;2024-01-30T06:02:42;31.67;;;18.23;;
62848;SDS011;48941;49.516;8.286;2024-01-30T06:05:09;38.65;;;21.08;;
62848;SDS011;48941;49.516;8.286;2024-01-30T06:07:39;42.67;;;23.20;;
62848;SDS011;48941;49.516;8.286;2024-01-30T06:10:07;38.88;;;22.73;;
62848;SDS011;48941;49.516;8.286;2024-01-30T06:12:36;38.85;;;22.25;;
62848;SDS011;48941;49.516;8.286;2024-01-30T06:15:04;37.75;;;22.15;;
62848;SDS011;48941;49.516;8.286;2024-01-30T06:17:32;35.38;;;20.77;;
62848;SDS011;48941;49.516;8.286;2024-01-30T06:20:00;36.05;;;19.33;;
62848;SDS011;48941;49.516;8.286;2024-01-30T06:22:28;33.50;;;19.92;;
62848;SDS011;48941;49.516;8.286;2024-01-30T06:24:57;36.08;;;20.77;;
62848;SDS011;48941;49.516;8.286;2024-01-30T06:27:25;40.47;;;21.35;;
62848;SDS011;48941;49.516;8.286;2024-01-30T06:29:53;43.97;;;23.20;;
62848;SDS011;48941;49.516;8.286;2024-01-30T06:32:21;40.38;;;22.52;;
62848;SDS011;48941;49.516;8.286;2024-01-30T06:34:49;35.95;;;19.85;;
62848;SDS011;48941;49.516;8.286;2024-01-30T06:37:16;31.45;;;17.40;;
62848;SDS011;48941;49.516;8.286;2024-01-30T06:39:44;28.23;;;17.65;;
62848;SDS011;48941;49.516;8.286;2024-01-30T06:42:13;44.03;;;20.85;;
62848;SDS011;48941;49.516;8.286;2024-01-30T06:44:41;45.72;;;24.25;;
62848;SDS011;48941;49.516;8.286;2024-01-30T06:47:08;39.30;;;22.00;;
62848;SDS011;48941;49.516;8.286;2024-01-30T06:49:36;38.70;;;20.52;;
62848;SDS011;48941;49.516;8.286;2024-01-30T06:52:05;37.25;;;20.05;;
62848;SDS011;48941;49.516;8.286;2024-01-30T06:54:33;38.03;;;19.58;;
62848;SDS011;48941;49.516;8.286;2024-01-30T06:57:01;36.83;;;18.98;;
62848;SDS011;48941;49.516;8.286;2024-01-30T06:59:31;39.60;;;18.55;;
62848;SDS011;48941;49.516;8.286;2024-01-30T07:01:58;35.67;;;18.42;;
62848;SDS011;48941;49.516;8.286;2024-01-30T07:04:27;37.20;;;17.60;;
62848;SDS011;48941;49.516;8.286;2024-01-30T07:06:54;29.98;;;17.50;;
62848;SDS011;48941;49.516;8.286;2024-01-30T07:09:21;27.67;;;16.30;;
62848;SDS011;48941;49.516;8.286;2024-01-30T07:11:49;35.65;;;17.80;;
62848;SDS011;48941;49.516;8.286;2024-01-30T07:14:17;31.13;;;16.98;;
62848;SDS011;48941;49.516;8.286;2024-01-30T07:16:46;30.98;;;17.88;;
62848;SDS011;48941;49.516;8.286;2024-01-30T07:19:14;26.00;;;15.50;;
62848;SDS011;48941;49.516;8.286;2024-01-30T07:21:41;28.88;;;16.50;;
62848;SDS011;48941;49.516;8.286;2024-01-30T07:24:10;32.10;;;16.83;;
62848;SDS011;48941;49.516;8.286;2024-01-30T07:26:38;34.35;;;17.60;;
62848;SDS011;48941;49.516;8.286;2024-01-30T07:29:05;30.65;;;16.75;;
62848;SDS011;48941;49.516;8.286;2024-01-30T07:31:33;34.03;;;18.60;;
62848;SDS011;48941;49.516;8.286;2024-01-30T07:34:03;54.13;;;26.90;;
62848;SDS011;48941;49.516;8.286;2024-01-30T07:36:31;34.70;;;19.92;;
62848;SDS011;48941;49.516;8.286;2024-01-30T07:38:59;38.42;;;20.70;;
62848;SDS011;48941;49.516;8.286;2024-01-30T07:41:27;46.63;;;23.10;;
62848;SDS011;48941;49.516;8.286;2024-01-30T07:43:55;37.28;;;19.85;;
62848;SDS011;48941;49.516;8.286;2024-01-30T07:46:22;36.88;;;20.40;;
62848;SDS011;48941;49.516;8.286;2024-01-30T07:48:50;36.47;;;21.17;;
62848;SDS011;48941;49.516;8.286;2024-01-30T07:51:22;38.17;;;20.13;;
62848;SDS011;48941;49.516;8.286;2024-01-30T07:53:49;32.10;;;17.92;;
62848;SDS011;48941;49.516;8.286;2024-01-30T07:56:17;29.85;;;18.58;;
62848;SDS011;48941;49.516;8.286;2024-01-30T07:58:45;32.83;;;19.23;;
62848;SDS011;48941;49.516;8.286;2024-01-30T08:01:14;35.00;;;19.70;;
62848;SDS011;48941;49.516;8.286;2024-01-30T08:03:42;33.25;;;18.77;;
62848;SDS011;48941;49.516;8.286;2024-01-30T08:06:10;28.58;;;17.30;;
62848;SDS011;48941;49.516;8.286;2024-01-30T08:08:39;36.58;;;18.20;;
62848;SDS011;48941;49.516;8.286;2024-01-30T08:11:07;34.47;;;18.75;;
62848;SDS011;48941;49.516;8.286;2024-01-30T08:13:35;38.50;;;20.52;;
62848;SDS011;48941;49.516;8.286;2024-01-30T08:16:03;38.40;;;21.00;;
62848;SDS011;48941;49.516;8.286;2024-01-30T08:18:31;34.95;;;20.15;;
62848;SDS011;48941;49.516;8.286;2024-01-30T08:20:59;36.30;;;20.10;;
62848;SDS011;48941;49.516;8.286;2024-01-30T08:23:27;29.88;;;18.65;;
62848;SDS011;48941;49.516;8.286;2024-01-30T08:25:56;72.55;;;32.53;;
62848;SDS011;48941;49.516;8.286;2024-01-30T08:28:24;41.30;;;22.42;;
62848;SDS011;48941;49.516;8.286;2024-01-30T08:30:53;35.97;;;20.15;;
62848;SDS011;48941;49.516;8.286;2024-01-30T08:33:20;34.85;;;18.38;;
62848;SDS011;48941;49.516;8.286;2024-01-30T08:35:48;29.77;;;18.48;;
62848;SDS011;48941;49.516;8.286;2024-01-30T08:38:16;33.60;;;17.73;;
62848;SDS011;48941;49.516;8.286;2024-01-30T08:40:44;28.25;;;17.88;;
62848;SDS011;48941;49.516;8.286;2024-01-30T08:43:13;28.90;;;16.80;;
62848;SDS011;48941;49.516;8.286;2024-01-30T08:45:42;29.33;;;16.83;;
62848;SDS011;48941;49.516;8.286;2024-01-30T08:48:09;28.25;;;16.27;;
62848;SDS011;48941;49.516;8.286;2024-01-30T08:50:37;33.97;;;18.92;;
62848;SDS011;48941;49.516;8.286;2024-01-30T08:53:05;34.80;;;19.35;;
62848;SDS011;48941;49.516;8.286;2024-01-30T08:55:33;35.95;;;18.30;;
62848;SDS011;48941;49.516;8.286;2024-01-30T08:58:01;32.10;;;18.10;;
62848;SDS011;48941;49.516;8.286;2024-01-30T09:00:32;31.73;;;17.95;;
62848;SDS011;48941;49.516;8.286;2024-01-30T09:03:00;32.58;;;19.02;;
62848;SDS011;48941;49.516;8.286;2024-01-30T09:05:28;30.10;;;15.88;;
62848;SDS011;48941;49.516;8.286;2024-01-30T09:07:55;30.20;;;16.60;;
62848;SDS011;48941;49.516;8.286;2024-01-30T09:10:23;29.58;;;18.08;;
62848;SDS011;48941;49.516;8.286;2024-01-30T09:12:51;31.25;;;19.13;;
62848;SDS011;48941;49.516;8.286;2024-01-30T09:15:19;33.63;;;18.40;;
62848;SDS011;48941;49.516;8.286;2024-01-30T09:17:51;31.77;;;15.52;;
62848;SDS011;48941;49.516;8.286;2024-01-30T09:20:19;27.00;;;16.02;;
62848;SDS011;48941;49.516;8.286;2024-01-30T09:22:48;28.67;;;16.60;;
62848;SDS011;48941;49.516;8.286;2024-01-30T09:25:16;30.55;;;16.83;;
62848;SDS011;48941;49.516;8.286;2024-01-30T09:27:45;33.08;;;18.77;;
62848;SDS011;48941;49.516;8.286;2024-01-30T09:30:13;31.08;;;17.05;;
62848;SDS011;48941;49.516;8.286;2024-01-30T09:32:41;26.95;;;17.52;;
62848;SDS011;48941;49.516;8.286;2024-01-30T09:35:11;26.17;;;16.13;;
62848;SDS011;48941;49.516;8.286;2024-01-30T09:37:40;26.27;;;16.70;;
62848;SDS011;48941;49.516;8.286;2024-01-30T09:40:08;27.23;;;15.63;;
62848;SDS011;48941;49.516;8.286;2024-01-30T09:42:36;28.08;;;17.33;;
62848;SDS011;48941;49.516;8.286;2024-01-30T09:45:04;26.70;;;16.95;;
62848;SDS011;48941;49.516;8.286;2024-01-30T09:47:34;27.50;;;16.75;;
62848;SDS011;48941;49.516;8.286;2024-01-30T09:50:08;28.95;;;15.68;;
62848;SDS011;48941;49.516;8.286;2024-01-30T09:52:38;28.00;;;15.95;;
62848;SDS011;48941;49.516;8.286;2024-01-30T09:55:07;23.65;;;14.05;;
62848;SDS011;48941;49.516;8.286;2024-01-30T09:57:36;29.20;;;15.50;;
62848;SDS011;48941;49.516;8.286;2024-01-30T10:00:04;27.63;;;15.40;;
62848;SDS011;48941;49.516;8.286;2024-01-30T10:02:35;26.23;;;15.88;;
62848;SDS011;48941;49.516;8.286;2024-01-30T10:05:03;22.98;;;14.18;;
62848;SDS011;48941;49.516;8.286;2024-01-30T10:07:32;24.63;;;15.07;;
62848;SDS011;48941;49.516;8.286;2024-01-30T10:10:02;27.63;;;15.48;;
62848;SDS011;48941;49.516;8.286;2024-01-30T10:12:29;23.20;;;14.70;;
62848;SDS011;48941;49.516;8.286;2024-01-30T10:14:57;24.42;;;15.05;;
62848;SDS011;48941;49.516;8.286;2024-01-30T10:17:25;24.08;;;15.30;;
62848;SDS011;48941;49.516;8.286;2024-01-30T10:19:59;24.33;;;14.73;;
62848;SDS011;48941;49.516;8.286;2024-01-30T10:22:30;24.20;;;14.88;;
62848;SDS011;48941;49.516;8.286;2024-01-30T10:24:58;25.17;;;15.52;;
62848;SDS011;48941;49.516;8.286;2024-01-30T10:27:33;22.02;;;15.10;;
62848;SDS011;48941;49.516;8.286;2024-01-30T10:30:00;24.67;;;15.15;;
62848;SDS011;48941;49.516;8.286;2024-01-30T10:32:30;29.80;;;15.98;;
62848;SDS011;48941;49.516;8.286;2024-01-30T10:34:58;25.55;;;15.30;;
62848;SDS011;48941;49.516;8.286;2024-01-30T10:37:26;22.75;;;14.73;;
62848;SDS011;48941;49.516;8.286;2024-01-30T10:40:00;22.67;;;14.63;;
62848;SDS011;48941;49.516;8.286;2024-01-30T10:42:31;24.15;;;15.48;;
62848;SDS011;48941;49.516;8.286;2024-01-30T10:45:05;23.92;;;15.82;;
62848;SDS011;48941;49.516;8.286;2024-01-30T10:47:35;37.47;;;16.23;;
62848;SDS011;48941;49.516;8.286;2024-01-30T10:50:04;22.23;;;13.90;;
62848;SDS011;48941;49.516;8.286;2024-01-30T10:52:34;23.88;;;15.32;;
62848;SDS011;48941;49.516;8.286;2024-01-30T10:55:02;26.02;;;15.43;;
62848;SDS011;48941;49.516;8.286;2024-01-30T10:57:35;23.42;;;15.00;;
62848;SDS011;48941;49.516;8.286;2024-01-30T11:00:04;24.75;;;15.93;;
62848;SDS011;48941;49.516;8.286;2024-01-30T11:02:37;28.17;;;15.77;;
62848;SDS011;48941;49.516;8.286;2024-01-30T11:05:07;29.02;;;16.98;;
62848;SDS011;48941;49.516;8.286;2024-01-30T11:07:36;26.98;;;15.90;;
62848;SDS011;48941;49.516;8.286;2024-01-30T11:10:06;32.13;;;16.23;;
62848;SDS011;48941;49.516;8.286;2024-01-30T11:12:39;27.55;;;15.55;;
62848;SDS011;48941;49.516;8.286;2024-01-30T11:15:10;27.02;;;16.33;;
62848;SDS011;48941;49.516;8.286;2024-01-30T11:17:41;23.00;;;15.02;;
62848;SDS011;48941;49.516;8.286;2024-01-30T11:20:10;26.65;;;15.27;;
62848;SDS011;48941;49.516;8.286;2024-01-30T11:22:41;25.50;;;15.43;;
62848;SDS011;48941;49.516;8.286;2024-01-30T11:25:11;27.35;;;15.20;;
62848;SDS011;48941;49.516;8.286;2024-01-30T11:27:42;29.80;;;16.90;;
62848;SDS011;48941;49.516;8.286;2024-01-30T11:30:11;21.15;;;14.82;;
62848;SDS011;48941;49.516;8.286;2024-01-30T11:32:57;25.50;;;15.93;;
62848;SDS011;48941;49.516;8.286;2024-01-30T11:35:27;28.10;;;16.27;;
62848;SDS011;48941;49.516;8.286;2024-01-30T11:37:57;25.52;;;16.10;;
62848;SDS011;48941;49.516;8.286;2024-01-30T11:40:27;25.60;;;15.75;;
62848;SDS011;48941;49.516;8.286;2024-01-30T11:42:57;26.52;;;15.32;;
62848;SDS011;48941;49.516;8.286;2024-01-30T11:45:26;27.40;;;16.27;;
62848;SDS011;48941;49.516;8.286;2024-01-30T11:47:55;26.25;;;14.85;;
62848;SDS011;48941;49.516;8.286;2024-01-30T11:50:24;25.42;;;15.82;;
62848;SDS011;48941;49.516;8.286;2024-01-30T11:52:52;30.42;;;16.45;;
62848;SDS011;48941;49.516;8.286;2024-01-30T11:55:21;26.17;;;15.43;;
62848;SDS011;48941;49.516;8.286;2024-01-30T11:57:50;21.42;;;14.07;;
62848;SDS011;48941;49.516;8.286;2024-01-30T12:00:19;22.90;;;14.88;;
62848;SDS011;48941;49.516;8.286;2024-01-30T12:02:48;25.55;;;15.88;;
62848;SDS011;48941;49.516;8.286;2024-01-30T12:05:18;23.98;;;15.75;;
62848;SDS011;48941;49.516;8.286;2024-01-30T12:07:47;27.02;;;16.02;;
62848;SDS011;48941;49.516;8.286;2024-01-30T12:10:15;23.27;;;15.98;;
62848;SDS011;48941;49.516;8.286;2024-01-30T12:12:53;26.45;;;15.80;;
62848;SDS011;48941;49.516;8.286;2024-01-30T12:15:23;26.27;;;15.68;;
62848;SDS011;48941;49.516;8.286;2024-01-30T12:17:50;24.50;;;15.05;;
62848;SDS011;48941;49.516;8.286;2024-01-30T12:20:18;24.67;;;14.90;;
62848;SDS011;48941;49.516;8.286;2024-01-30T12:22:49;25.20;;;14.48;;
62848;SDS011;48941;49.516;8.286;2024-01-30T12:25:18;27.38;;;15.43;;
62848;SDS011;48941;49.516;8.286;2024-01-30T12:27:50;29.98;;;14.93;;
62848;SDS011;48941;49.516;8.286;2024-01-30T12:30:19;21.63;;;14.05;;
62848;SDS011;48941;49.516;8.286;2024-01-30T12:32:50;21.60;;;14.20;;
62848;SDS011;48941;49.516;8.286;2024-01-30T12:35:19;22.60;;;14.85;;
62848;SDS011;48941;49.516;8.286;2024-01-30T12:37:48;21.60;;;13.88;;
62848;SDS011;48941;49.516;8.286;2024-01-30T12:40:17;19.20;;;13.93;;
62848;SDS011;48941;49.516;8.286;2024-01-30T12:42:46;22.13;;;14.60;;
62848;SDS011;48941;49.516;8.286;2024-01-30T12:45:16;31.30;;;15.20;;
62848;SDS011;48941;49.516;8.286;2024-01-30T12:47:46;21.48;;;14.73;;
62848;SDS011;48941;49.516;8.286;2024-01-30T12:50:16;26.27;;;13.98;;
62848;SDS011;48941;49.516;8.286;2024-01-30T12:52:44;20.85;;;13.82;;
62848;SDS011;48941;49.516;8.286;2024-01-30T12:55:15;20.33;;;12.63;;
62848;SDS011;48941;49.516;8.286;2024-01-30T12:57:43;23.40;;;13.52;;
62848;SDS011;48941;49.516;8.286;2024-01-30T13:00:12;23.05;;;13.27;;
62848;SDS011;48941;49.516;8.286;2024-01-30T13:02:40;16.92;;;11.98;;
62848;SDS011;48941;49.516;8.286;2024-01-30T13:05:11;19.20;;;12.00;;
62848;SDS011;48941;49.516;8.286;2024-01-30T13:07:41;19.63;;;12.32;;
62848;SDS011;48941;49.516;8.286;2024-01-30T13:10:11;19.40;;;12.60;;
62848;SDS011;48941;49.516;8.286;2024-01-30T13:12:39;18.55;;;11.15;;
62848;SDS011;48941;49.516;8.286;2024-01-30T13:15:06;16.38;;;11.25;;
62848;SDS011;48941;49.516;8.286;2024-01-30T13:17:35;16.77;;;10.63;;
62848;SDS011;48941;49.516;8.286;2024-01-30T13:20:03;16.00;;;10.60;;
62848;SDS011;48941;49.516;8.286;2024-01-30T13:22:38;15.60;;;10.95;;
62848;SDS011;48941;49.516;8.286;2024-01-30T13:25:08;14.15;;;9.98;;
62848;SDS011;48941;49.516;8.286;2024-01-30T13:27:36;15.60;;;10.48;;
62848;SDS011;48941;49.516;8.286;2024-01-30T13:30:07;14.98;;;10.77;;
62848;SDS011;48941;49.516;8.286;2024-01-30T13:32:36;14.75;;;9.98;;
62848;SDS011;48941;49.516;8.286;2024-01-30T13:35:04;16.02;;;11.00;;
62848;SDS011;48941;49.516;8.286;2024-01-30T13:37:32;15.77;;;10.38;;
62848;SDS011;48941;49.516;8.286;2024-01-30T13:40:02;15.05;;;10.57;;
62848;SDS011;48941;49.516;8.286;2024-01-30T13:42:38;15.23;;;9.60;;
62848;SDS011;48941;49.516;8.286;2024-01-30T13:45:06;12.90;;;9.40;;
62848;SDS011;48941;49.516;8.286;2024-01-30T13:47:36;19.55;;;9.88;;
62848;SDS011;48941;49.516;8.286;2024-01-30T13:50:04;12.05;;;9.05;;
62848;SDS011;48941;49.516;8.286;2024-01-30T13:52:34;16.25;;;10.95;;
62848;SDS011;48941;49.516;8.286;2024-01-30T13:55:10;29.35;;;16.63;;
62848;SDS011;48941;49.516;8.286;2024-01-30T13:57:40;21.75;;;13.82;;
62848;SDS011;48941;49.516;8.286;2024-01-30T14:00:09;24.75;;;12.60;;
62848;SDS011;48941;49.516;8.286;2024-01-30T14:02:37;17.88;;;11.63;;
62848;SDS011;48941;49.516;8.286;2024-01-30T14:05:07;18.05;;;10.23;;
62848;SDS011;48941;49.516;8.286;2024-01-30T14:07:36;18.38;;;9.15;;
62848;SDS011;48941;49.516;8.286;2024-01-30T14:10:06;14.63;;;9.27;;
62848;SDS011;48941;49.516;8.286;2024-01-30T14:12:38;13.55;;;9.35;;
62848;SDS011;48941;49.516;8.286;2024-01-30T14:15:08;13.98;;;9.48;;
62848;SDS011;48941;49.516;8.286;2024-01-30T14:17:52;15.70;;;10.18;;
62848;SDS011;48941;49.516;8.286;2024-01-30T14:20:20;17.85;;;11.95;;
62848;SDS011;48941;49.516;8.286;2024-01-30T14:22:48;19.35;;;10.95;;
62848;SDS011;48941;49.516;8.286;2024-01-30T14:25:16;17.27;;;11.40;;
62848;SDS011;48941;49.516;8.286;2024-01-30T14:27:44;18.75;;;9.85;;
62848;SDS011;48941;49.516;8.286;2024-01-30T14:30:13;16.67;;;9.68;;
62848;SDS011;48941;49.516;8.286;2024-01-30T14:32:41;12.57;;;7.30;;
62848;SDS011;48941;49.516;8.286;2024-01-30T14:35:11;12.70;;;7.63;;
62848;SDS011;48941;49.516;8.286;2024-01-30T14:37:39;14.48;;;8.10;;
62848;SDS011;48941;49.516;8.286;2024-01-30T14:40:07;17.98;;;7.65;;